createdAt,value
2019-03-27T03:27:18.697Z,63.95
2019-03-27T03:28:18.484Z,63.29
2019-03-27T03:29:18.619Z,63.01
2019-03-27T03:30:18.708Z,62.72
2019-03-27T03:31:18.612Z,62.15
2019-03-27T03:32:18.659Z,61.87
2019-03-27T03:33:18.623Z,61.68
2019-03-27T03:34:18.657Z,61.49
2019-03-27T03:35:18.631Z,61.68
2019-03-27T03:36:18.765Z,60.92
2019-03-27T03:37:19.844Z,60.06
2019-03-27T03:38:18.753Z,59.49
2019-03-27T03:39:18.583Z,59.21
2019-03-27T03:40:18.456Z,58.26
2019-03-27T03:41:18.843Z,57.98
2019-03-27T03:42:18.173Z,57.12
2019-03-27T03:43:18.102Z,56.27
2019-03-27T03:44:18.098Z,55.89
2019-03-27T03:45:18.100Z,54.94
2019-03-27T03:46:18.127Z,54.56
2019-03-27T03:47:18.159Z,54.18
2019-03-27T03:48:18.189Z,53.89
2019-03-27T03:49:18.149Z,54.18
2019-03-27T03:50:18.217Z,54.46
2019-03-27T03:51:18.171Z,54.56
2019-03-27T03:52:18.202Z,54.56
2019-03-27T03:53:18.254Z,54.94
2019-03-27T03:54:18.221Z,54.75
2019-03-27T03:55:18.255Z,54.37
2019-03-27T03:56:18.292Z,53.52
2019-03-27T03:57:18.248Z,53.52
2019-03-27T03:58:18.268Z,53.04
2019-03-27T03:59:18.272Z,52.95
2019-03-27T04:00:18.322Z,52.28
2019-03-27T04:01:18.360Z,52.28
2019-03-27T04:02:18.296Z,51.90
2019-03-27T04:03:18.310Z,52.19
2019-03-27T04:04:18.366Z,51.90
2019-03-27T04:05:18.337Z,51.81
2019-03-27T04:06:18.347Z,51.81
2019-03-27T04:07:18.379Z,51.33
2019-03-27T04:08:18.371Z,51.05
2019-03-27T04:09:18.457Z,50.48
2019-03-27T04:10:18.424Z,50.29
2019-03-27T04:11:18.401Z,51.05
2019-03-27T04:12:18.464Z,49.91
2019-03-27T04:13:18.459Z,48.96
2019-03-27T04:14:18.434Z,47.89
2019-03-27T04:15:18.472Z,47.92
2019-03-27T04:16:18.461Z,48.46
2019-03-27T04:17:18.480Z,48.36
2019-03-27T04:18:18.489Z,47.82
2019-03-27T04:19:18.528Z,46.97
2019-03-27T04:20:18.509Z,48.01
2019-03-27T04:21:18.519Z,47.73
2019-03-27T04:22:18.558Z,47.82
2019-03-27T04:23:18.547Z,47.82
2019-03-27T04:24:18.577Z,47.63
2019-03-27T04:25:18.604Z,49.43
2019-03-27T04:26:18.608Z,51.24
2019-03-27T04:27:18.629Z,52.56
2019-03-27T04:28:18.602Z,53.42
2019-03-27T04:29:18.613Z,53.52
2019-03-27T04:30:18.673Z,53.99
2019-03-27T04:31:18.675Z,54.75
2019-03-27T04:32:18.665Z,53.52
2019-03-27T04:33:18.704Z,53.23
2019-03-27T04:34:18.691Z,54.27
2019-03-27T04:35:18.688Z,55.32
2019-03-27T04:36:18.804Z,56.17
2019-03-27T04:37:18.719Z,57.03
2019-03-27T04:38:18.747Z,56.84
2019-03-27T04:39:18.741Z,57.03
2019-03-27T04:40:18.745Z,58.26
2019-03-27T04:41:18.782Z,59.40
2019-03-27T04:42:18.773Z,59.21
2019-03-27T04:43:18.787Z,60.06
2019-03-27T04:44:18.856Z,61.71
2019-03-27T04:45:18.809Z,62.08
2019-03-27T04:46:18.819Z,63.42
2019-03-27T04:47:31.571Z,64.17
2019-03-27T04:48:18.851Z,65.79
2019-03-27T04:49:18.856Z,66.93
2019-03-27T04:50:18.899Z,69.11
2019-03-27T04:51:18.914Z,69.68
2019-03-27T04:52:18.957Z,71.20
2019-03-27T04:53:19.024Z,72.34
2019-03-27T04:54:18.918Z,73.96
2019-03-27T04:55:18.936Z,74.33
2019-03-27T04:56:19.015Z,74.15
2019-03-27T04:57:18.992Z,74.43
2019-03-27T04:58:18.974Z,74.43
2019-03-27T04:59:19.055Z,74.62
2019-03-27T05:00:19.042Z,74.43
2019-03-27T05:01:19.050Z,73.67
2019-03-27T05:02:19.034Z,72.44
2019-03-27T05:03:19.061Z,71.67
2019-03-27T05:04:19.049Z,70.92
2019-03-27T05:05:19.090Z,70.35
2019-03-27T05:06:19.067Z,69.87
2019-03-27T05:07:19.080Z,70.06
2019-03-27T05:08:19.180Z,69.59
2019-03-27T05:09:19.114Z,69.11
2019-03-27T05:10:19.166Z,69.11
2019-03-27T05:11:19.187Z,68.35
2019-03-27T05:12:19.173Z,68.07
2019-03-27T05:13:19.162Z,67.40
2019-03-27T05:14:19.235Z,67.12
2019-03-27T05:15:19.178Z,66.17
2019-03-27T05:16:19.199Z,65.79
2019-03-27T05:17:19.219Z,64.27
2019-03-27T05:18:19.251Z,64.37
2019-03-27T05:19:19.291Z,64.27
2019-03-27T05:20:19.269Z,64.65
2019-03-27T05:21:19.267Z,64.37
2019-03-27T05:22:19.308Z,64.56
2019-03-27T05:23:19.281Z,65.03
2019-03-27T05:24:19.395Z,65.22
2019-03-27T05:25:19.310Z,66.93
2019-03-27T05:26:19.355Z,68.07
2019-03-27T05:27:19.366Z,68.35
2019-03-27T05:28:19.350Z,69.30
2019-03-27T05:29:19.407Z,69.59
2019-03-27T05:30:19.435Z,70.63
2019-03-27T05:31:19.384Z,71.30
2019-03-27T05:32:19.412Z,71.20
2019-03-27T05:33:19.413Z,70.44
2019-03-27T05:34:19.474Z,67.50
2019-03-27T05:35:19.443Z,65.88
2019-03-27T05:36:19.451Z,62.94
2019-03-27T05:37:19.458Z,61.87
2019-03-27T05:38:19.474Z,61.04
2019-03-27T05:39:19.484Z,59.71
2019-03-27T05:40:19.502Z,59.62
2019-03-27T05:41:19.575Z,58.76
2019-03-27T05:42:19.555Z,59.24
2019-03-27T05:43:19.559Z,59.24
2019-03-27T05:44:19.615Z,60.00
2019-03-27T05:45:19.569Z,60.76
2019-03-27T05:46:19.608Z,61.71
2019-03-27T05:47:19.585Z,63.79
2019-03-27T05:48:19.600Z,64.84
2019-03-27T05:49:19.642Z,66.17
2019-03-27T05:50:19.682Z,67.40
2019-03-27T05:51:19.638Z,68.83
2019-03-27T05:52:19.713Z,69.68
2019-03-27T05:53:19.701Z,70.15
2019-03-27T05:54:19.676Z,69.96
2019-03-27T05:55:19.753Z,69.91
2019-03-27T05:56:19.705Z,69.68
2019-03-27T05:57:19.716Z,69.21
2019-03-27T05:58:19.742Z,68.07
2019-03-27T05:59:19.775Z,67.40
2019-03-27T06:00:19.779Z,67.88
2019-03-27T06:01:29.807Z,67.88
2019-03-27T06:03:24.735Z,68.10
2019-03-27T06:04:24.782Z,68.67
2019-03-27T06:05:33.501Z,69.62
2019-03-27T06:07:29.379Z,69.91
2019-03-27T06:08:29.294Z,70.10
2019-03-27T06:09:29.387Z,70.10
2019-03-27T06:10:29.163Z,70.57
2019-03-27T06:11:29.452Z,71.04
2019-03-27T06:12:30.585Z,71.71
2019-03-27T06:13:29.300Z,72.38
